createdAt,value
2023-02-24T00:01:09.296Z,6.20
2023-02-24T00:05:12.950Z,6.20
2023-02-24T00:09:20.369Z,6.10
2023-02-24T00:18:36.967Z,6.10
2023-02-24T00:22:40.914Z,6.10
2023-02-24T00:26:46.414Z,6.10
2023-02-24T00:30:52.205Z,6.00
2023-02-24T00:35:22.972Z,6.10
2023-02-24T00:39:41.721Z,6.10
2023-02-24T00:43:48.119Z,6.10
2023-02-24T00:53:41.305Z,6.10
2023-02-24T00:57:51.230Z,6.10
2023-02-24T01:01:55.119Z,6.10
2023-02-24T01:06:02.318Z,6.10
2023-02-24T01:10:13.325Z,6.00
2023-02-24T01:14:25.072Z,5.90
2023-02-24T01:18:31.445Z,5.70
2023-02-24T01:23:29.571Z,5.70
2023-02-24T01:27:37.311Z,5.70
2023-02-24T01:31:43.099Z,5.60
2023-02-24T01:35:58.187Z,5.70
2023-02-24T01:45:06.974Z,5.80
2023-02-24T01:50:16.260Z,5.80
2023-02-24T01:54:39.460Z,5.80
2023-02-24T01:58:45.725Z,5.80
2023-02-24T02:03:11.443Z,5.90
2023-02-24T02:07:17.894Z,5.90
2023-02-24T02:11:49.511Z,6.00
2023-02-24T02:16:11.399Z,6.00
2023-02-24T02:20:43.057Z,6.10
2023-02-24T02:30:27.236Z,6.20
2023-02-24T02:34:51.655Z,6.20
2023-02-24T02:39:21.334Z,6.20
2023-02-24T02:43:52.796Z,6.20
2023-02-24T02:53:34.474Z,6.20
2023-02-24T02:57:41.633Z,6.20
2023-02-24T03:01:55.845Z,6.20
2023-02-24T03:10:37.723Z,6.20
2023-02-24T03:14:46.558Z,6.20
2023-02-24T03:19:20.790Z,6.20
2023-02-24T03:23:27.465Z,6.20
2023-02-24T03:27:38.556Z,6.10
2023-02-24T03:31:50.933Z,6.10
2023-02-24T03:36:06.521Z,6.10
2023-02-24T03:40:14.913Z,6.00
2023-02-24T03:44:48.753Z,6.00
2023-02-24T03:53:49.281Z,5.80
2023-02-24T03:58:28.519Z,5.90
2023-02-24T04:02:35.558Z,5.90
2023-02-24T04:07:07.569Z,5.80
2023-02-24T04:11:33.740Z,5.90
2023-02-24T04:15:47.201Z,5.90
2023-02-24T04:20:18.455Z,5.90
2023-02-24T04:24:45.681Z,5.90
2023-02-24T04:28:49.948Z,5.70
2023-02-24T04:32:54.296Z,5.80
2023-02-24T04:36:59.572Z,5.70
2023-02-24T04:41:21.666Z,5.70
2023-02-24T04:45:28.187Z,5.70
2023-02-24T04:49:34.139Z,5.70
2023-02-24T04:54:36.552Z,5.70
2023-02-24T04:58:44.064Z,5.70
2023-02-24T05:02:49.790Z,5.60
2023-02-24T05:06:53.424Z,5.60
2023-02-24T05:10:58.935Z,5.60
2023-02-24T05:15:22.676Z,5.50
2023-02-24T05:19:46.196Z,5.50
2023-02-24T05:23:59.696Z,5.50
2023-02-24T05:28:05.408Z,5.30
2023-02-24T05:32:13.366Z,5.30
2023-02-24T05:36:18.729Z,5.30
2023-02-24T05:40:26.547Z,5.30
2023-02-24T05:44:31.923Z,5.20
2023-02-24T05:48:39.118Z,5.20
2023-02-24T05:52:46.047Z,5.20
2023-02-24T05:56:57.154Z,5.20
2023-02-24T06:01:08.307Z,5.30
2023-02-24T06:05:25.927Z,5.20
2023-02-24T06:09:29.688Z,5.40
2023-02-24T06:13:48.333Z,5.40
2023-02-24T06:18:17.659Z,5.50
2023-02-24T06:22:26.425Z,5.50
2023-02-24T06:26:37.067Z,5.60
2023-02-24T06:30:44.115Z,5.60
2023-02-24T06:34:54.251Z,5.70
2023-02-24T06:38:59.738Z,5.80
2023-02-24T06:43:03.244Z,5.90
2023-02-24T06:47:17.231Z,6.00
2023-02-24T06:51:23.525Z,6.00
2023-02-24T06:55:35.772Z,6.20
2023-02-24T07:00:04.102Z,6.30
2023-02-24T07:04:28.121Z,6.40
2023-02-24T07:08:32.384Z,6.40
2023-02-24T07:12:41.440Z,6.50
2023-02-24T07:16:46.716Z,6.50
2023-02-24T07:20:50.987Z,6.60
2023-02-24T07:25:00.792Z,6.60
2023-02-24T07:29:06.667Z,6.70
2023-02-24T07:33:36.861Z,6.70
2023-02-24T07:42:30.694Z,6.70
2023-02-24T07:46:39.674Z,6.70
2023-02-24T07:50:43.839Z,6.70
2023-02-24T07:54:55.325Z,6.60
2023-02-24T07:59:01.390Z,6.50
2023-02-24T08:03:56.339Z,6.60
2023-02-24T08:08:03.383Z,6.50
2023-02-24T08:12:08.250Z,6.50
2023-02-24T08:16:15.036Z,6.60
2023-02-24T08:20:25.318Z,6.60
2023-02-24T08:24:30.943Z,6.60
2023-02-24T08:28:40.976Z,6.70
2023-02-24T08:32:46.951Z,6.70
2023-02-24T08:36:56.249Z,6.80
2023-02-24T08:41:07.439Z,7.00
2023-02-24T08:45:15.318Z,7.20
2023-02-24T08:49:20.837Z,7.40
2023-02-24T08:53:31.121Z,7.80
2023-02-24T08:57:38.208Z,8.10
2023-02-24T09:02:18.114Z,8.30
2023-02-24T09:06:30.536Z,8.50
2023-02-24T09:10:36.334Z,8.80
2023-02-24T09:14:42.524Z,9.00
2023-02-24T09:19:12.095Z,9.10
2023-02-24T09:24:25.475Z,9.10
2023-02-24T09:28:33.019Z,9.20
2023-02-24T09:32:39.711Z,9.30
2023-02-24T09:41:33.583Z,9.30
2023-02-24T09:45:39.771Z,9.40
2023-02-24T09:49:56.475Z,9.50
2023-02-24T09:54:02.151Z,9.60
2023-02-24T09:58:29.381Z,9.60
2023-02-24T10:02:45.226Z,9.60
2023-02-24T10:06:51.972Z,9.60
2023-02-24T10:11:07.306Z,9.60
2023-02-24T10:15:42.512Z,9.50
2023-02-24T10:25:54.162Z,9.30
2023-02-24T10:30:11.369Z,9.20
2023-02-24T10:34:29.734Z,9.10
2023-02-24T10:38:38.634Z,9.00
2023-02-24T10:42:48.147Z,9.10
2023-02-24T10:47:18.042Z,9.30
2023-02-24T10:51:22.567Z,9.60
2023-02-24T10:55:53.604Z,10.00
2023-02-24T11:19:49.629Z,10.50
2023-02-24T11:23:58.920Z,10.50
2023-02-24T11:28:05.984Z,10.40
2023-02-24T11:32:40.201Z,10.40
2023-02-24T11:36:54.658Z,10.30
2023-02-24T11:41:07.774Z,10.20
2023-02-24T11:45:36.843Z,10.10
2023-02-24T11:49:44.778Z,10.20
2023-02-24T11:53:53.812Z,10.40
2023-02-24T11:58:01.500Z,10.50
2023-02-24T12:02:38.815Z,10.80
2023-02-24T12:07:03.942Z,10.60
2023-02-24T12:11:20.071Z,10.60
2023-02-24T12:15:31.015Z,10.60
2023-02-24T12:20:06.217Z,10.50
2023-02-24T12:24:26.428Z,10.30
2023-02-24T12:29:01.358Z,10.40
2023-02-24T12:33:25.911Z,10.40
2023-02-24T12:37:56.651Z,10.50
2023-02-24T12:42:14.220Z,10.40
2023-02-24T12:46:24.762Z,10.40
2023-02-24T12:50:40.485Z,10.50
2023-02-24T12:54:48.052Z,10.50
2023-02-24T12:59:13.807Z,10.70
2023-02-24T13:03:50.974Z,10.80
2023-02-24T13:08:17.412Z,10.80
2023-02-24T13:12:29.335Z,10.90
2023-02-24T13:16:37.375Z,10.80
2023-02-24T13:20:43.106Z,10.80
2023-02-24T13:25:21.922Z,10.70
2023-02-24T13:29:26.073Z,11.00
2023-02-24T13:33:48.759Z,11.00
2023-02-24T13:37:56.238Z,11.10
2023-02-24T13:42:19.023Z,11.20
2023-02-24T13:46:23.056Z,11.10
2023-02-24T13:50:54.968Z,11.00
2023-02-24T13:55:30.718Z,10.90
2023-02-24T14:00:01.864Z,11.00
2023-02-24T14:04:18.077Z,11.20
2023-02-24T14:08:44.794Z,11.30
2023-02-24T14:12:51.516Z,11.30
2023-02-24T14:16:55.109Z,11.50
2023-02-24T14:21:29.444Z,11.50
2023-02-24T14:25:39.599Z,11.40
2023-02-24T14:29:46.145Z,11.10
2023-02-24T14:33:58.012Z,10.90
2023-02-24T14:38:02.402Z,10.90
2023-02-24T14:42:13.558Z,10.70
2023-02-24T14:46:18.724Z,10.60
2023-02-24T14:51:28.228Z,10.50
2023-02-24T14:55:41.481Z,10.40
2023-02-24T14:59:49.541Z,10.30
2023-02-24T15:04:20.986Z,10.20
2023-02-24T15:08:35.227Z,10.10
2023-02-24T15:13:29.727Z,10.00
2023-02-24T15:17:42.109Z,9.90
2023-02-24T15:21:47.914Z,9.70
2023-02-24T15:26:27.628Z,9.70
2023-02-24T15:30:34.890Z,9.70
2023-02-24T15:35:04.634Z,9.50
2023-02-24T15:39:49.738Z,9.30
2023-02-24T15:43:56.594Z,9.10
2023-02-24T15:48:54.345Z,8.90
2023-02-24T15:52:59.533Z,8.80
2023-02-24T15:57:14.341Z,8.60
2023-02-24T16:01:20.322Z,8.60
2023-02-24T16:05:30.431Z,8.50
2023-02-24T16:09:37.723Z,8.50
2023-02-24T16:14:06.116Z,8.40
2023-02-24T16:18:21.578Z,8.30
2023-02-24T16:22:26.638Z,8.30
2023-02-24T16:26:43.222Z,8.20
2023-02-24T16:30:47.572Z,8.20
2023-02-24T16:34:56.601Z,8.10
2023-02-24T16:39:01.390Z,8.00
2023-02-24T16:43:35.346Z,7.90
2023-02-24T16:47:39.138Z,7.80
2023-02-24T16:51:45.344Z,7.60
2023-02-24T16:55:49.237Z,7.50
2023-02-24T17:00:23.852Z,7.40
2023-02-24T17:04:36.979Z,7.30
2023-02-24T17:08:46.133Z,7.20
2023-02-24T17:12:52.089Z,7.20
2023-02-24T17:16:56.103Z,7.10
2023-02-24T17:21:41.509Z,7.10
2023-02-24T17:25:48.068Z,7.00
2023-02-24T17:30:46.688Z,6.90
2023-02-24T17:34:52.122Z,6.80
2023-02-24T17:38:58.935Z,6.80
2023-02-24T17:43:04.129Z,6.70
2023-02-24T17:47:22.954Z,6.60
2023-02-24T17:51:27.826Z,6.60
2023-02-24T17:55:55.820Z,6.50
2023-02-24T18:00:08.447Z,6.50
2023-02-24T18:04:24.706Z,6.40
2023-02-24T18:08:28.754Z,6.40
2023-02-24T18:12:32.410Z,6.40
2023-02-24T18:17:03.201Z,6.40
2023-02-24T18:21:08.801Z,6.40
2023-02-24T18:25:13.874Z,6.40
2023-02-24T18:29:17.632Z,6.30
2023-02-24T18:33:23.879Z,6.40
2023-02-24T18:37:27.797Z,6.30
2023-02-24T18:42:30.186Z,6.30
2023-02-24T18:46:34.157Z,6.30
2023-02-24T18:51:45.479Z,6.40
2023-02-24T18:56:16.150Z,6.40
2023-02-24T19:01:15.488Z,6.40
2023-02-24T19:05:20.633Z,6.30
2023-02-24T19:09:25.487Z,6.40
2023-02-24T19:13:33.910Z,6.40
2023-02-24T19:17:38.782Z,6.40
2023-02-24T19:21:42.364Z,6.50
2023-02-24T19:26:18.026Z,6.40
2023-02-24T19:30:23.130Z,6.50
2023-02-24T19:34:29.350Z,6.40
2023-02-24T19:38:34.164Z,6.40
2023-02-24T19:43:07.779Z,6.30
2023-02-24T19:47:15.545Z,6.30
2023-02-24T19:51:20.999Z,6.30
2023-02-24T19:55:24.754Z,6.30
2023-02-24T19:59:28.634Z,6.30
2023-02-24T20:03:35.705Z,6.30
2023-02-24T20:07:44.527Z,6.30
2023-02-24T20:12:00.827Z,6.30
2023-02-24T20:16:08.862Z,6.20
2023-02-24T20:20:16.491Z,6.20
2023-02-24T20:24:22.122Z,6.20
2023-02-24T20:28:27.750Z,6.10
2023-02-24T20:32:34.763Z,6.30
2023-02-24T20:36:46.995Z,6.20
2023-02-24T20:41:00.489Z,6.30
2023-02-24T20:45:08.058Z,6.40
2023-02-24T20:49:41.060Z,6.40
2023-02-24T20:53:57.215Z,6.40
2023-02-24T20:58:07.368Z,6.40
2023-02-24T21:02:16.619Z,6.30
2023-02-24T21:06:22.026Z,6.40
2023-02-24T21:10:28.660Z,6.40
2023-02-24T21:14:33.069Z,6.40
2023-02-24T21:18:38.597Z,6.30
2023-02-24T21:22:43.889Z,6.30
2023-02-24T21:26:49.782Z,6.30
2023-02-24T21:30:54.535Z,6.20
2023-02-24T21:34:58.373Z,6.20
2023-02-24T21:39:29.019Z,6.20
2023-02-24T21:43:34.064Z,6.20
2023-02-24T21:47:41.352Z,6.20
2023-02-24T21:51:45.934Z,6.30
2023-02-24T21:56:45.181Z,6.30
2023-02-24T22:00:50.171Z,6.30
2023-02-24T22:06:05.516Z,6.20
2023-02-24T22:10:09.820Z,6.20
2023-02-24T22:20:41.674Z,5.50
2023-02-24T22:24:46.633Z,5.40
2023-02-24T22:29:23.989Z,5.30
2023-02-24T22:33:28.052Z,5.30
2023-02-24T22:37:34.616Z,5.30
2023-02-24T22:41:39.495Z,5.20
2023-02-24T22:45:56.335Z,5.20
2023-02-24T22:49:59.673Z,5.20
2023-02-24T22:54:08.497Z,5.10
2023-02-24T22:58:13.405Z,5.10
2023-02-24T23:08:12.130Z,5.00
2023-02-24T23:12:17.362Z,4.90
2023-02-24T23:16:24.963Z,5.00
2023-02-24T23:20:28.752Z,5.00
2023-02-24T23:24:37.974Z,4.90
2023-02-24T23:28:41.921Z,4.90
2023-02-24T23:33:05.421Z,4.90
2023-02-24T23:37:12.112Z,4.90
2023-02-24T23:41:37.883Z,4.90
2023-02-24T23:45:43.941Z,4.80
2023-02-24T23:49:48.976Z,4.70
2023-02-24T23:53:56.341Z,4.60
2023-02-24T23:57:59.801Z,4.50
